Time;durP1;ratioP1;P1;durP2;ratioP2;P2;SDS_P1;SDS_P2;PMS_P1;PMS_P2;Temp;Humidity;BMP_temperature;BMP_pressure;BME280_temperature;BME280_humidity;BME280_pressure;Samples;Min_cycle;Max_cycle;Signal;HPM_P1;HPM_P2
2023/06/07 04:01:42;;;;;;;8.60;5.23;;;16.50;97.30;;;;;;5445684;23;21034;-89
2023/06/07 04:04:08;;;;;;;7.10;4.80;;;16.50;97.30;;;;;;4952764;29;20422;-86
2023/06/07 04:06:34;;;;;;;21.33;8.27;;;16.50;97.30;;;;;;4952120;28;20634;-89
2023/06/07 04:08:59;;;;;;;5.90;4.30;;;16.50;97.30;;;;;;4947477;28;20513;-88
2023/06/07 04:11:28;;;;;;;7.43;4.97;;;16.50;97.30;;;;;;4952494;28;20203;-89
2023/06/07 04:13:54;;;;;;;5.70;4.30;;;16.50;97.30;;;;;;4951119;28;20199;-87
2023/06/07 04:16:22;;;;;;;4.77;4.33;;;16.60;97.30;;;;;;4947950;28;20441;-87
2023/06/07 04:18:51;;;;;;;9.27;6.60;;;16.60;97.30;;;;;;4956743;28;20471;-87
2023/06/07 04:21:19;;;;;;;6.07;5.40;;;16.60;97.30;;;;;;4945455;28;20443;-88
2023/06/07 04:23:45;;;;;;;5.73;4.47;;;16.70;97.30;;;;;;4945064;29;20420;-86
2023/06/07 04:26:11;;;;;;;6.90;4.93;;;16.70;97.30;;;;;;4945742;29;20443;-87
2023/06/07 04:28:41;;;;;;;5.40;4.77;;;16.70;97.30;;;;;;4950356;28;20176;-86
2023/06/07 04:31:07;;;;;;;9.37;5.70;;;16.70;97.30;;;;;;4944657;28;20478;-88
2023/06/07 04:33:35;;;;;;;5.43;5.10;;;16.80;97.30;;;;;;4953244;28;20612;-89
2023/06/07 04:36:02;;;;;;;11.83;5.33;;;16.80;97.30;;;;;;4948030;28;20431;-87
2023/06/07 04:38:29;;;;;;;6.93;4.30;;;16.80;97.30;;;;;;4955188;28;20427;-88
2023/06/07 04:40:55;;;;;;;5.03;4.17;;;16.80;97.30;;;;;;4947344;28;20523;-86
2023/06/07 04:43:23;;;;;;;6.70;5.70;;;16.80;97.30;;;;;;4935415;29;20436;-87
2023/06/07 04:45:55;;;;;;;19.10;7.90;;;16.80;97.30;;;;;;4940595;29;20424;-88
2023/06/07 04:48:25;;;;;;;9.50;6.47;;;16.90;97.30;;;;;;4936655;28;20432;-88
2023/06/07 04:50:51;;;;;;;7.50;4.70;;;16.90;97.30;;;;;;4938705;29;20506;-87
2023/06/07 04:53:21;;;;;;;6.83;5.50;;;16.90;97.30;;;;;;4949931;29;20474;-88
2023/06/07 04:55:47;;;;;;;9.60;4.83;;;16.90;97.30;;;;;;4941019;28;20568;-88
2023/06/07 04:58:17;;;;;;;5.33;4.30;;;16.90;97.30;;;;;;4945245;28;20415;-87
2023/06/07 05:00:43;;;;;;;12.73;5.60;;;17.00;97.30;;;;;;4933163;28;20443;-90
2023/06/07 05:03:13;;;;;;;5.87;4.27;;;17.00;97.30;;;;;;4943655;29;20970;-87
2023/06/07 05:05:40;;;;;;;10.93;6.17;;;17.00;97.30;;;;;;4940465;29;20566;-90
2023/06/07 05:08:05;;;;;;;7.57;4.80;;;17.00;97.30;;;;;;4941471;29;20456;-92
2023/06/07 05:10:31;;;;;;;7.50;4.87;;;17.00;97.30;;;;;;4939385;28;20494;-89
2023/06/07 05:12:56;;;;;;;4.80;3.53;;;17.00;97.30;;;;;;4943124;29;20226;-87
2023/06/07 05:15:23;;;;;;;6.93;5.60;;;17.00;97.30;;;;;;4937006;29;20211;-87
2023/06/07 05:17:49;;;;;;;10.10;5.17;;;17.00;97.30;;;;;;4938910;28;20187;-88
2023/06/07 05:20:15;;;;;;;5.93;5.10;;;17.10;97.30;;;;;;4942891;29;20791;-89
2023/06/07 05:22:41;;;;;;;5.83;4.13;;;17.10;97.30;;;;;;4935490;28;20451;-90
2023/06/07 05:25:09;;;;;;;8.43;5.80;;;17.10;97.30;;;;;;4939852;29;20427;-90
2023/06/07 05:27:36;;;;;;;10.23;6.23;;;17.10;97.30;;;;;;4931333;29;20439;-91
2023/06/07 05:30:06;;;;;;;10.67;5.70;;;17.10;97.30;;;;;;4939168;29;20453;-88
2023/06/07 05:32:33;;;;;;;8.70;5.00;;;17.10;97.30;;;;;;4930984;29;20467;-92
2023/06/07 05:34:59;;;;;;;8.80;5.07;;;17.10;97.30;;;;;;4934043;29;20443;-89
2023/06/07 05:37:25;;;;;;;8.20;5.57;;;17.20;97.30;;;;;;4949207;29;20423;-92
2023/06/07 05:39:51;;;;;;;6.93;5.67;;;17.20;97.30;;;;;;4941258;29;20420;-88
2023/06/07 05:42:17;;;;;;;7.60;4.70;;;17.20;97.30;;;;;;4942404;29;20238;-92
2023/06/07 05:44:45;;;;;;;6.63;3.83;;;17.20;97.30;;;;;;4939178;29;20455;-91
2023/06/07 05:47:11;;;;;;;10.00;5.40;;;17.20;97.30;;;;;;4933856;28;20184;-89
2023/06/07 05:49:37;;;;;;;8.27;4.57;;;17.20;97.30;;;;;;4944484;29;20427;-91
2023/06/07 05:52:02;;;;;;;12.77;7.93;;;17.30;97.30;;;;;;4938251;29;20217;-88
2023/06/07 05:54:28;;;;;;;7.43;6.93;;;17.20;97.30;;;;;;4948611;29;20183;-88
2023/06/07 05:56:54;;;;;;;11.73;6.30;;;17.20;97.30;;;;;;4934636;28;20200;-90
2023/06/07 05:59:20;;;;;;;8.80;4.80;;;17.20;97.30;;;;;;4941197;28;20447;-92
2023/06/07 06:01:46;;;;;;;10.60;5.27;;;17.20;97.30;;;;;;4940665;29;20326;-89
2023/06/07 06:04:11;;;;;;;15.03;7.27;;;17.20;97.30;;;;;;4931361;28;20329;-88
2023/06/07 06:06:38;;;;;;;6.57;5.13;;;17.20;97.30;;;;;;4938409;28;20179;-91
2023/06/07 06:09:04;;;;;;;9.33;6.70;;;17.20;97.30;;;;;;4932794;29;20184;-91
2023/06/07 06:11:30;;;;;;;12.00;4.80;;;17.20;97.30;;;;;;4948298;29;20828;-90
2023/06/07 06:13:56;;;;;;;5.00;4.57;;;17.20;97.30;;;;;;4935790;29;20427;-91
2023/06/07 06:16:21;;;;;;;5.83;5.40;;;17.20;97.30;;;;;;4935285;28;20274;-88
2023/06/07 06:18:47;;;;;;;10.57;6.50;;;17.20;97.30;;;;;;4946458;29;20182;-91
2023/06/07 06:21:12;;;;;;;10.40;6.43;;;17.20;97.30;;;;;;4940718;29;20199;-91
2023/06/07 06:23:38;;;;;;;6.87;4.10;;;17.20;97.30;;;;;;4933464;29;20188;-91
2023/06/07 06:26:04;;;;;;;10.40;5.87;;;17.20;97.30;;;;;;4942597;28;20736;-93
2023/06/07 06:28:29;;;;;;;5.17;4.63;;;17.20;97.30;;;;;;4942808;29;20211;-92
2023/06/07 06:30:55;;;;;;;21.67;6.43;;;17.20;97.30;;;;;;4944410;29;20211;-89
2023/06/07 06:33:21;;;;;;;8.00;4.23;;;17.30;97.30;;;;;;4931466;29;20207;-91
2023/06/07 06:35:47;;;;;;;7.53;5.40;;;17.30;97.30;;;;;;4945298;29;20674;-89
2023/06/07 06:38:13;;;;;;;9.00;5.90;;;17.30;97.30;;;;;;4946747;28;20183;-86
2023/06/07 06:40:38;;;;;;;4.20;3.90;;;17.30;97.30;;;;;;4936934;28;20415;-90
2023/06/07 06:43:04;;;;;;;7.90;5.60;;;17.30;97.30;;;;;;4947993;29;20184;-92
2023/06/07 06:45:30;;;;;;;7.50;5.93;;;17.30;97.30;;;;;;4956503;29;20251;-90
2023/06/07 06:47:58;;;;;;;10.17;5.87;;;17.40;97.30;;;;;;4960044;29;20195;-90
2023/06/07 06:50:23;;;;;;;4.93;4.63;;;17.40;97.30;;;;;;4952449;28;20198;-88
2023/06/07 06:52:49;;;;;;;6.67;5.20;;;17.40;97.30;;;;;;4933128;28;20482;-88
2023/06/07 06:55:15;;;;;;;11.63;5.53;;;17.40;97.30;;;;;;4943965;29;20198;-87
2023/06/07 06:57:40;;;;;;;9.47;6.00;;;17.40;97.30;;;;;;4937219;28;20180;-88
2023/06/07 07:00:11;;;;;;;14.20;5.20;;;17.40;97.30;;;;;;4931934;29;20183;-90
2023/06/07 07:02:37;;;;;;;4.80;4.43;;;17.50;97.30;;;;;;4943106;29;20235;-90
2023/06/07 07:05:05;;;;;;;6.30;4.17;;;17.50;97.30;;;;;;4937769;29;20427;-88
2023/06/07 07:07:31;;;;;;;8.37;4.40;;;17.50;97.30;;;;;;4933234;28;20784;-89
2023/06/07 07:09:57;;;;;;;8.37;6.67;;;17.60;97.30;;;;;;4937007;28;20993;-89
2023/06/07 07:12:23;;;;;;;5.53;3.97;;;17.60;97.30;;;;;;4931939;29;20471;-86
2023/06/07 07:14:49;;;;;;;6.67;4.93;;;17.70;97.30;;;;;;4933346;28;20427;-89
2023/06/07 07:17:15;;;;;;;5.60;4.30;;;17.70;97.30;;;;;;4940019;28;20226;-90
2023/06/07 07:19:40;;;;;;;6.50;4.40;;;17.80;97.30;;;;;;4935732;29;20423;-89
2023/06/07 07:22:06;;;;;;;7.53;4.43;;;17.90;97.30;;;;;;4943529;29;20510;-90
2023/06/07 07:24:31;;;;;;;8.00;4.17;;;17.90;97.30;;;;;;4935794;29;20218;-90
2023/06/07 07:26:57;;;;;;;5.57;3.70;;;18.00;97.30;;;;;;4938601;29;20194;-88
2023/06/07 07:29:23;;;;;;;6.23;4.00;;;18.00;97.30;;;;;;4940343;29;20196;-90
2023/06/07 07:31:48;;;;;;;2.60;2.40;;;18.10;97.30;;;;;;4931703;29;20343;-91
2023/06/07 07:34:14;;;;;;;4.40;3.60;;;18.10;97.30;;;;;;4940369;29;20183;-90
2023/06/07 07:36:39;;;;;;;4.50;4.00;;;18.10;97.30;;;;;;4947277;29;20175;-88
2023/06/07 07:39:05;;;;;;;6.87;4.00;;;18.20;97.30;;;;;;4937867;29;20187;-91
2023/06/07 07:41:34;;;;;;;17.63;3.10;;;18.20;97.30;;;;;;4942703;29;20253;-91
2023/06/07 07:44:00;;;;;;;3.50;3.30;;;18.30;97.30;;;;;;4946610;29;20430;-87
2023/06/07 07:46:25;;;;;;;4.63;3.40;;;18.30;97.30;;;;;;4949696;29;20435;-90
2023/06/07 07:48:51;;;;;;;19.77;4.60;;;18.30;97.30;;;;;;4933993;29;20658;-91
2023/06/07 07:51:16;;;;;;;4.87;3.50;;;18.40;97.30;;;;;;4933469;29;20204;-91
2023/06/07 07:53:42;;;;;;;6.00;3.53;;;18.40;97.30;;;;;;4941711;29;20210;-90
2023/06/07 07:56:08;;;;;;;9.17;2.70;;;18.40;97.30;;;;;;4941169;29;20183;-89
2023/06/07 07:58:35;;;;;;;3.70;3.50;;;18.50;97.30;;;;;;4936338;29;20172;-88
2023/06/07 08:01:01;;;;;;;4.63;3.43;;;18.50;97.30;;;;;;4945744;29;20464;-90
2023/06/07 08:03:27;;;;;;;5.90;2.60;;;18.50;97.30;;;;;;4940505;29;20454;-89
2023/06/07 08:05:52;;;;;;;7.93;4.70;;;18.50;97.30;;;;;;4941359;28;20494;-90
2023/06/07 08:08:18;;;;;;;21.53;5.40;;;18.50;97.30;;;;;;4936330;28;20283;-93
2023/06/07 08:10:45;;;;;;;4.33;3.70;;;18.60;97.30;;;;;;4950334;29;20282;-93
2023/06/07 08:13:10;;;;;;;2.27;2.07;;;18.60;97.30;;;;;;4944819;28;20222;-93
2023/06/07 08:15:36;;;;;;;4.10;3.43;;;18.60;97.30;;;;;;4942584;29;20411;-90
2023/06/07 08:18:01;;;;;;;3.50;2.90;;;18.60;97.30;;;;;;4942131;29;20180;-89
2023/06/07 08:20:27;;;;;;;2.63;2.33;;;18.60;97.30;;;;;;4947797;28;20237;-88
2023/06/07 08:22:53;;;;;;;3.40;3.20;;;18.70;97.30;;;;;;4946049;29;20305;-90
2023/06/07 08:25:18;;;;;;;7.17;3.97;;;18.70;97.30;;;;;;4938814;28;20270;-91
2023/06/07 08:27:45;;;;;;;3.63;2.60;;;18.70;97.30;;;;;;4934792;29;20869;-91
2023/06/07 08:30:11;;;;;;;6.17;3.63;;;18.80;97.30;;;;;;4934085;29;20194;-91
2023/06/07 08:32:37;;;;;;;7.37;3.30;;;18.80;97.30;;;;;;4934393;29;20554;-91
2023/06/07 08:35:03;;;;;;;7.03;4.70;;;18.90;97.30;;;;;;4939318;28;20654;-89
2023/06/07 08:37:28;;;;;;;5.33;4.17;;;18.90;97.30;;;;;;4935984;29;20187;-88
2023/06/07 08:39:54;;;;;;;5.83;3.93;;;19.00;97.30;;;;;;4947807;29;20415;-88
2023/06/07 08:42:19;;;;;;;6.33;3.80;;;19.20;97.30;;;;;;4937445;28;20204;-90
2023/06/07 08:44:45;;;;;;;2.70;2.50;;;19.30;97.30;;;;;;4935440;29;20326;-91
2023/06/07 08:47:13;;;;;;;3.60;3.43;;;19.40;97.30;;;;;;4945185;28;20195;-90
2023/06/07 08:49:40;;;;;;;3.00;2.80;;;19.50;97.30;;;;;;4942293;28;20199;-90
2023/06/07 08:52:09;;;;;;;5.30;3.07;;;19.70;97.30;;;;;;4935042;29;20487;-89
2023/06/07 08:54:40;;;;;;;5.53;3.57;;;19.80;97.30;;;;;;4932818;28;20768;-91
2023/06/07 08:57:06;;;;;;;4.30;4.00;;;19.80;97.30;;;;;;4934164;29;20502;-92
2023/06/07 08:59:32;;;;;;;5.53;3.87;;;19.90;97.00;;;;;;4943644;29;21012;-90
2023/06/07 09:01:58;;;;;;;5.90;4.57;;;20.00;96.80;;;;;;4943233;28;20475;-91
2023/06/07 09:04:24;;;;;;;6.20;4.27;;;20.00;97.10;;;;;;4951858;29;20427;-90
2023/06/07 09:06:51;;;;;;;4.40;4.10;;;20.10;97.30;;;;;;4948501;29;20184;-90
2023/06/07 09:09:16;;;;;;;7.87;3.53;;;20.20;96.90;;;;;;4948463;29;20206;-88
2023/06/07 09:11:42;;;;;;;6.60;4.10;;;20.20;96.80;;;;;;4952475;28;20470;-89
2023/06/07 09:14:09;;;;;;;6.27;3.60;;;20.30;96.60;;;;;;4941949;29;20172;-87
2023/06/07 09:16:52;;;;;;;6.97;4.50;;;20.30;96.90;;;;;;4932622;28;20306;-88
2023/06/07 09:19:38;;;;;;;4.33;3.60;;;20.40;96.20;;;;;;4936204;29;20415;-91
2023/06/07 09:22:14;;;;;;;4.50;3.30;;;20.40;95.40;;;;;;4946715;29;20446;-90
2023/06/07 09:24:40;;;;;;;4.13;3.90;;;20.50;95.80;;;;;;4951918;28;20474;-90
2023/06/07 09:27:07;;;;;;;2.97;2.77;;;20.50;95.60;;;;;;4940476;29;20422;-87
2023/06/07 09:29:43;;;;;;;3.63;3.43;;;20.60;95.80;;;;;;4943073;28;21121;-88
2023/06/07 09:32:23;;;;;;;6.97;3.73;;;20.70;95.30;;;;;;4941716;28;20478;-91
2023/06/07 09:34:50;;;;;;;7.00;3.80;;;20.80;95.20;;;;;;4940709;28;21073;-89
2023/06/07 09:37:20;;;;;;;5.40;3.70;;;20.80;95.10;;;;;;4954685;28;20429;-89
2023/06/07 09:39:51;;;;;;;6.40;3.80;;;20.90;94.70;;;;;;4951304;29;20557;-90
2023/06/07 09:42:19;;;;;;;5.43;4.87;;;21.00;94.30;;;;;;4934519;29;20486;-88
2023/06/07 09:44:49;;;;;;;3.77;3.57;;;21.10;94.80;;;;;;4945827;28;20438;-90
2023/06/07 09:47:21;;;;;;;5.77;4.47;;;21.20;94.70;;;;;;4945219;29;20463;-91
2023/06/07 09:49:46;;;;;;;4.37;4.00;;;21.30;94.50;;;;;;4937124;28;20483;-91
2023/06/07 09:52:14;;;;;;;5.67;3.70;;;21.40;94.40;;;;;;4937896;29;20468;-87
2023/06/07 09:54:42;;;;;;;4.27;4.00;;;21.50;93.90;;;;;;4941524;29;20182;-90
2023/06/07 09:57:09;;;;;;;4.60;3.63;;;21.50;93.70;;;;;;4935144;29;20424;-88
2023/06/07 09:59:58;;;;;;;6.07;4.40;;;21.60;94.10;;;;;;4943958;29;20486;-90
2023/06/07 10:02:26;;;;;;;4.60;4.03;;;21.60;94.10;;;;;;4936733;28;20475;-88
2023/06/07 10:04:52;;;;;;;8.93;5.07;;;21.80;94.60;;;;;;4940354;28;20973;-88
2023/06/07 10:07:22;;;;;;;6.13;4.33;;;21.80;93.60;;;;;;4946904;28;20434;-89
2023/06/07 10:09:59;;;;;;;6.20;4.67;;;21.90;93.50;;;;;;4943121;28;20428;-93
2023/06/07 10:12:31;;;;;;;3.27;3.10;;;22.00;93.10;;;;;;4942119;28;20984;-89
2023/06/07 10:15:02;;;;;;;6.40;4.83;;;22.10;93.30;;;;;;4944432;29;20431;-88
2023/06/07 10:18:08;;;;;;;7.20;3.63;;;22.10;92.90;;;;;;4936541;29;20575;-91
2023/06/07 10:20:38;;;;;;;5.80;5.50;;;22.20;92.90;;;;;;4955232;23;21721;-88
2023/06/07 10:23:05;;;;;;;5.00;4.40;;;22.30;93.30;;;;;;4945606;29;20445;-87
2023/06/07 10:25:58;;;;;;;3.93;3.00;;;22.40;93.20;;;;;;4960501;28;20469;-88
2023/06/07 10:28:40;;;;;;;9.83;5.03;;;22.40;92.90;;;;;;4966766;28;20940;-88
2023/06/07 10:31:10;;;;;;;5.73;4.13;;;22.50;91.90;;;;;;4942978;29;20439;-88
2023/06/07 10:33:37;;;;;;;3.80;3.60;;;22.50;91.40;;;;;;4950636;29;20520;-87
2023/06/07 10:36:06;;;;;;;4.10;3.87;;;22.60;91.60;;;;;;4950361;28;20431;-86
2023/06/07 10:38:32;;;;;;;6.40;4.43;;;22.70;91.80;;;;;;4951053;29;20795;-89
2023/06/07 10:41:00;;;;;;;5.60;3.63;;;22.90;91.10;;;;;;4942181;29;20442;-85
2023/06/07 10:43:30;;;;;;;3.70;3.50;;;23.00;90.10;;;;;;4949722;29;20423;-87
2023/06/07 10:46:23;;;;;;;3.53;3.20;;;23.00;90.80;;;;;;4949643;29;20790;-86
2023/06/07 10:48:49;;;;;;;4.83;2.87;;;23.20;90.60;;;;;;4958051;28;20871;-87
2023/06/07 10:51:15;;;;;;;3.30;2.97;;;23.30;91.00;;;;;;4943092;29;20442;-87
2023/06/07 10:53:55;;;;;;;15.60;3.80;;;23.40;89.70;;;;;;4951510;28;20590;-86
2023/06/07 10:56:34;;;;;;;6.83;4.07;;;23.50;89.50;;;;;;4948452;29;20435;-87
2023/06/07 10:59:15;;;;;;;3.80;3.60;;;23.60;88.90;;;;;;4946962;28;20869;-85
2023/06/07 11:01:41;;;;;;;4.43;2.90;;;23.60;88.10;;;;;;4959136;28;20435;-85
2023/06/07 11:04:07;;;;;;;7.80;3.87;;;23.70;88.90;;;;;;4950544;29;20411;-86
2023/06/07 11:06:33;;;;;;;5.60;3.00;;;23.80;88.60;;;;;;4934799;29;20422;-86
2023/06/07 11:09:18;;;;;;;3.53;2.90;;;23.80;88.40;;;;;;4937874;29;20234;-86
2023/06/07 11:11:44;;;;;;;5.30;3.37;;;23.90;88.40;;;;;;4950685;29;20577;-87
2023/06/07 11:14:11;;;;;;;14.03;3.50;;;23.90;87.40;;;;;;4950338;29;20447;-85
2023/06/07 11:16:37;;;;;;;3.17;2.67;;;24.00;87.70;;;;;;4948869;29;20426;-85
2023/06/07 11:19:12;;;;;;;2.93;2.77;;;24.10;87.00;;;;;;4950444;29;20427;-89
2023/06/07 11:22:15;;;;;;;5.03;3.00;;;24.10;86.90;;;;;;4950502;29;20466;-86
2023/06/07 11:24:41;;;;;;;3.07;2.57;;;24.20;85.90;;;;;;4949450;29;20485;-87
2023/06/07 11:27:10;;;;;;;4.10;3.47;;;24.30;84.80;;;;;;4950140;29;20419;-85
2023/06/07 11:29:36;;;;;;;5.93;3.60;;;24.30;84.70;;;;;;4942724;29;20289;-86
2023/06/07 11:32:02;;;;;;;5.20;3.37;;;24.30;84.10;;;;;;4950800;28;21047;-85
2023/06/07 11:34:33;;;;;;;3.67;2.97;;;24.20;84.10;;;;;;4948255;29;20713;-85
2023/06/07 11:37:25;;;;;;;5.73;3.77;;;24.20;84.30;;;;;;4946166;28;20419;-87
2023/06/07 11:39:50;;;;;;;4.20;2.87;;;24.20;84.60;;;;;;4940230;28;20470;-88
2023/06/07 11:42:16;;;;;;;4.07;3.27;;;24.30;84.80;;;;;;4937743;29;20446;-85
2023/06/07 11:44:43;;;;;;;3.77;2.63;;;24.40;85.00;;;;;;4949291;29;20653;-88
2023/06/07 11:47:08;;;;;;;3.93;2.63;;;24.50;83.10;;;;;;4947168;28;20215;-85
2023/06/07 11:49:37;;;;;;;5.93;3.53;;;24.60;84.80;;;;;;4951824;29;20461;-87
2023/06/07 11:52:03;;;;;;;2.70;2.50;;;24.70;85.30;;;;;;4951483;28;20241;-86
2023/06/07 11:54:29;;;;;;;2.90;2.57;;;24.80;83.20;;;;;;4938970;29;20455;-87
2023/06/07 11:56:54;;;;;;;5.50;3.80;;;24.80;84.30;;;;;;4952855;28;20178;-85
2023/06/07 11:59:24;;;;;;;4.13;3.20;;;25.00;84.70;;;;;;4953459;29;20679;-85
2023/06/07 12:01:53;;;;;;;5.87;3.50;;;25.00;83.90;;;;;;4953663;29;20226;-85
2023/06/07 12:04:21;;;;;;;3.33;2.97;;;25.10;83.50;;;;;;4944895;29;20435;-85
2023/06/07 12:06:49;;;;;;;7.17;3.80;;;25.20;82.70;;;;;;4954026;29;20426;-87
2023/06/07 12:09:14;;;;;;;3.37;3.17;;;25.20;83.50;;;;;;4953432;29;20434;-85
2023/06/07 12:11:40;;;;;;;7.57;3.50;;;25.30;83.80;;;;;;4952624;28;20553;-86
2023/06/07 12:14:09;;;;;;;3.23;3.03;;;25.40;83.30;;;;;;4953056;29;20183;-85
2023/06/07 12:16:38;;;;;;;3.93;3.60;;;25.50;84.10;;;;;;4953483;29;20185;-87
2023/06/07 12:19:05;;;;;;;3.97;2.30;;;25.60;84.00;;;;;;4954857;28;20507;-88
2023/06/07 12:21:30;;;;;;;5.50;2.77;;;25.60;82.60;;;;;;4952886;29;20473;-85
2023/06/07 12:23:59;;;;;;;2.40;2.20;;;25.70;82.70;;;;;;4953235;28;20426;-85
2023/06/07 12:26:25;;;;;;;3.40;3.10;;;25.80;83.00;;;;;;4953285;29;20274;-87
2023/06/07 12:28:51;;;;;;;2.73;2.53;;;25.80;82.00;;;;;;4957215;28;20511;-85
2023/06/07 12:31:20;;;;;;;2.63;2.43;;;25.90;81.40;;;;;;4949003;28;21065;-87
2023/06/07 12:33:59;;;;;;;5.17;3.07;;;25.90;81.50;;;;;;4960265;28;20223;-87
2023/06/07 12:36:30;;;;;;;3.93;2.97;;;25.80;81.20;;;;;;4952634;29;20427;-88
2023/06/07 12:39:00;;;;;;;3.37;2.77;;;25.80;81.10;;;;;;4949604;29;20423;-85
2023/06/07 12:41:27;;;;;;;3.07;2.87;;;25.80;81.30;;;;;;4952928;29;20438;-87
2023/06/07 12:43:54;;;;;;;3.10;2.90;;;25.70;81.50;;;;;;4952759;28;20453;-86
2023/06/07 12:46:20;;;;;;;2.90;2.70;;;25.70;81.00;;;;;;4939014;29;20419;-88
2023/06/07 12:48:46;;;;;;;2.83;2.60;;;25.70;81.50;;;;;;4967126;28;20763;-87
2023/06/07 12:51:12;;;;;;;4.13;3.17;;;25.70;81.80;;;;;;4939478;29;20271;-85
2023/06/07 12:53:38;;;;;;;5.57;3.40;;;25.80;82.40;;;;;;4950852;29;20204;-85
2023/06/07 12:56:04;;;;;;;5.20;3.73;;;25.90;82.40;;;;;;4954467;29;20183;-88
2023/06/07 12:58:30;;;;;;;2.47;2.30;;;25.90;81.90;;;;;;4938627;29;20455;-88
2023/06/07 13:00:55;;;;;;;4.50;3.30;;;25.90;82.00;;;;;;4953938;29;20730;-86
2023/06/07 13:03:21;;;;;;;6.30;3.40;;;25.90;82.80;;;;;;4951072;29;20250;-85
2023/06/07 13:05:47;;;;;;;3.87;3.37;;;25.90;81.40;;;;;;4950966;29;20194;-87
2023/06/07 13:08:13;;;;;;;2.80;2.60;;;26.00;82.70;;;;;;4952330;28;20908;-85
2023/06/07 13:10:39;;;;;;;4.73;2.73;;;26.00;81.80;;;;;;4951238;29;20716;-85
2023/06/07 13:13:05;;;;;;;5.30;3.23;;;26.10;81.40;;;;;;4952060;29;20450;-87
2023/06/07 13:15:31;;;;;;;7.23;3.70;;;26.10;83.20;;;;;;4947402;28;20175;-88
2023/06/07 13:17:56;;;;;;;6.77;3.63;;;26.10;81.50;;;;;;4952133;29;20418;-87
2023/06/07 13:20:22;;;;;;;4.70;3.73;;;26.10;81.30;;;;;;4950956;29;20696;-85
2023/06/07 13:22:47;;;;;;;2.73;2.60;;;26.20;82.00;;;;;;4966003;28;20187;-86
2023/06/07 13:25:14;;;;;;;4.10;3.50;;;26.20;83.10;;;;;;4951590;28;20218;-85
2023/06/07 13:27:39;;;;;;;4.03;3.43;;;26.30;83.80;;;;;;4952407;29;20198;-87
2023/06/07 13:30:07;;;;;;;4.97;3.60;;;26.30;83.50;;;;;;4951833;29;20418;-87
2023/06/07 13:32:33;;;;;;;3.33;3.13;;;26.40;83.70;;;;;;4952134;28;20207;-85
2023/06/07 13:34:59;;;;;;;3.70;3.00;;;26.50;83.20;;;;;;4950836;28;20423;-85
2023/06/07 13:37:26;;;;;;;4.70;3.17;;;26.50;83.50;;;;;;4951720;28;20430;-85
2023/06/07 13:39:52;;;;;;;3.63;2.93;;;26.60;80.90;;;;;;4964625;28;20559;-85
2023/06/07 13:42:21;;;;;;;3.63;3.37;;;26.70;81.40;;;;;;4950050;28;20454;-87
2023/06/07 13:44:47;;;;;;;4.50;3.20;;;26.90;80.70;;;;;;4954286;29;20767;-86
2023/06/07 13:47:13;;;;;;;8.83;2.57;;;27.00;80.60;;;;;;4952481;28;20780;-85
2023/06/07 13:49:41;;;;;;;3.33;3.10;;;27.10;81.40;;;;;;4953230;29;20419;-86
2023/06/07 13:52:07;;;;;;;8.93;3.13;;;27.30;80.60;;;;;;4940165;29;20212;-86
2023/06/07 13:54:33;;;;;;;4.27;2.87;;;27.40;80.20;;;;;;4950440;29;20415;-86
2023/06/07 13:57:01;;;;;;;15.57;3.97;;;27.50;79.60;;;;;;4954436;28;20423;-83
2023/06/07 13:59:28;;;;;;;5.63;3.33;;;27.70;78.30;;;;;;4954075;28;20431;-86
2023/06/07 14:01:54;;;;;;;4.33;3.33;;;27.70;76.50;;;;;;4946347;28;20559;-86
2023/06/07 14:04:21;;;;;;;3.47;2.90;;;27.60;76.00;;;;;;4945798;28;20506;-86
2023/06/07 14:06:47;;;;;;;5.43;3.60;;;27.40;77.10;;;;;;4950718;28;20435;-87
2023/06/07 14:09:13;;;;;;;7.80;3.43;;;27.20;77.60;;;;;;4950511;29;21000;-87
2023/06/07 14:11:39;;;;;;;3.53;2.80;;;27.10;77.50;;;;;;4952792;28;20443;-86
2023/06/07 14:14:04;;;;;;;5.07;3.07;;;27.10;77.50;;;;;;4940811;29;20685;-87
2023/06/07 14:16:30;;;;;;;3.53;3.30;;;27.00;79.30;;;;;;4952517;28;20179;-86
2023/06/07 14:18:56;;;;;;;5.97;3.03;;;27.00;79.00;;;;;;4949908;29;20178;-86
2023/06/07 14:21:23;;;;;;;3.07;2.87;;;26.90;78.70;;;;;;4940943;29;20602;-84
2023/06/07 14:23:48;;;;;;;6.33;3.40;;;26.80;78.40;;;;;;4949037;28;20525;-86
2023/06/07 14:26:14;;;;;;;15.43;4.63;;;26.80;78.40;;;;;;4949143;29;20513;-87
2023/06/07 14:28:41;;;;;;;2.60;2.40;;;26.80;78.90;;;;;;4949828;29;20183;-86
2023/06/07 14:31:08;;;;;;;3.87;2.80;;;26.80;79.20;;;;;;4951003;28;20557;-85
2023/06/07 14:33:34;;;;;;;4.90;3.13;;;26.80;80.00;;;;;;4950444;29;20565;-86
2023/06/07 14:35:59;;;;;;;5.10;3.33;;;26.80;81.00;;;;;;4952333;29;21068;-86
2023/06/07 14:38:25;;;;;;;2.77;2.57;;;26.70;79.40;;;;;;4950766;28;20231;-85
2023/06/07 14:40:51;;;;;;;10.30;4.90;;;26.40;79.70;;;;;;4949685;28;20207;-85
2023/06/07 14:43:16;;;;;;;4.10;3.90;;;26.30;81.40;;;;;;4950949;28;20231;-86
2023/06/07 14:45:42;;;;;;;3.47;3.27;;;26.10;82.20;;;;;;4949997;28;20665;-84
2023/06/07 14:48:08;;;;;;;3.90;2.83;;;25.80;82.90;;;;;;4966671;28;20183;-86
2023/06/07 14:50:33;;;;;;;6.20;3.60;;;25.60;82.90;;;;;;4950883;29;20238;-85
2023/06/07 14:53:00;;;;;;;5.93;3.80;;;25.30;83.60;;;;;;4949376;28;20202;-86
2023/06/07 14:55:25;;;;;;;5.70;4.33;;;25.10;84.30;;;;;;4950991;29;20194;-85
2023/06/07 14:57:52;;;;;;;4.97;4.30;;;24.90;85.60;;;;;;4942405;29;20820;-84
2023/06/07 15:00:18;;;;;;;6.93;3.83;;;24.70;86.10;;;;;;4950833;29;20183;-86
2023/06/07 15:02:43;;;;;;;3.83;3.43;;;24.50;86.40;;;;;;4950686;29;20929;-86
2023/06/07 15:05:09;;;;;;;5.00;3.57;;;24.30;86.80;;;;;;4941415;29;20510;-85
2023/06/07 15:07:34;;;;;;;5.03;3.73;;;24.20;87.00;;;;;;4947918;29;20241;-86
2023/06/07 15:10:00;;;;;;;6.60;4.90;;;24.20;89.20;;;;;;4950454;29;20179;-86
2023/06/07 15:12:29;;;;;;;5.37;3.00;;;;;;;;;;4955301;28;20240;-86
2023/06/07 15:14:54;;;;;;;3.57;3.37;;;23.80;90.80;;;;;;4951774;29;20270;-86
2023/06/07 15:17:20;;;;;;;4.90;3.73;;;23.50;91.90;;;;;;4951773;29;20494;-84
2023/06/07 15:19:45;;;;;;;6.37;4.83;;;23.20;93.70;;;;;;4951370;29;20210;-84
2023/06/07 15:22:11;;;;;;;8.03;4.80;;;23.00;94.50;;;;;;4942041;28;20235;-84
2023/06/07 15:24:36;;;;;;;4.10;3.90;;;22.90;95.20;;;;;;4949976;29;20674;-86
2023/06/07 15:27:02;;;;;;;7.40;5.20;;;22.80;96.00;;;;;;4953887;29;20377;-85
2023/06/07 15:29:27;;;;;;;4.50;3.30;;;22.80;96.80;;;;;;4954948;28;20183;-86
2023/06/07 15:31:53;;;;;;;4.30;4.00;;;22.70;96.60;;;;;;4943363;29;20238;-86
2023/06/07 15:34:19;;;;;;;7.73;5.20;;;22.70;96.60;;;;;;4949842;29;20238;-85
2023/06/07 15:36:44;;;;;;;6.63;4.67;;;22.70;96.80;;;;;;4962360;28;20198;-86
2023/06/07 15:39:10;;;;;;;4.00;3.40;;;22.60;96.80;;;;;;4949264;29;20279;-85
2023/06/07 15:41:35;;;;;;;3.50;3.30;;;22.60;97.00;;;;;;4947301;29;20203;-86
2023/06/07 15:44:01;;;;;;;8.27;4.50;;;22.60;96.80;;;;;;4954359;29;20289;-87
2023/06/07 15:46:27;;;;;;;9.43;5.43;;;22.50;96.60;;;;;;4950475;29;20218;-85
2023/06/07 15:48:52;;;;;;;3.67;3.13;;;22.50;96.60;;;;;;4952429;28;20231;-86
2023/06/07 15:51:18;;;;;;;5.97;3.90;;;22.60;96.50;;;;;;4953965;29;20250;-86
2023/06/07 15:53:45;;;;;;;10.93;4.20;;;22.60;96.50;;;;;;4952597;29;20306;-84
2023/06/07 15:56:12;;;;;;;8.87;4.47;;;22.60;96.60;;;;;;4946147;29;20430;-85
2023/06/07 15:58:38;;;;;;;4.97;4.00;;;22.70;97.10;;;;;;4948881;29;20422;-85
2023/06/07 16:01:03;;;;;;;26.27;4.80;;;22.60;97.10;;;;;;4953090;29;20443;-85
2023/06/07 16:03:29;;;;;;;7.90;5.67;;;22.60;97.30;;;;;;4946562;28;20179;-85
2023/06/07 16:05:54;;;;;;;4.77;4.47;;;22.50;97.30;;;;;;4943396;28;20206;-83
2023/06/07 16:08:20;;;;;;;6.73;4.57;;;22.40;97.30;;;;;;4952700;28;20214;-86
2023/06/07 16:10:45;;;;;;;6.20;5.13;;;22.30;97.30;;;;;;4953855;29;20211;-86
2023/06/07 16:13:11;;;;;;;4.67;4.37;;;22.10;97.30;;;;;;4950905;29;20226;-86
2023/06/07 16:15:37;;;;;;;5.10;4.80;;;22.00;97.30;;;;;;4938507;29;20234;-86
2023/06/07 16:18:04;;;;;;;9.13;5.60;;;22.00;97.30;;;;;;4953960;28;20191;-83
2023/06/07 16:22:56;;;;;;;6.30;5.47;;;22.00;97.30;;;;;;4977721;23;20505;-65
2023/06/07 16:25:22;;;;;;;7.47;5.00;;;22.00;97.30;;;;;;4946289;28;20490;-65
2023/06/07 16:27:47;;;;;;;6.27;5.10;;;22.00;97.30;;;;;;4937047;28;20656;-65
2023/06/07 16:30:13;;;;;;;7.97;4.90;;;22.00;97.30;;;;;;4946817;28;20215;-65
2023/06/07 16:32:38;;;;;;;7.60;5.73;;;21.90;97.30;;;;;;4952652;28;20310;-67
2023/06/07 16:35:04;;;;;;;6.60;5.00;;;21.80;97.30;;;;;;4941731;28;20474;-65
2023/06/07 16:37:30;;;;;;;5.53;3.43;;;21.70;97.30;;;;;;4943030;29;20183;-65
2023/06/07 16:39:55;;;;;;;9.33;4.93;;;21.70;97.30;;;;;;4938738;29;21040;-65
2023/06/07 16:42:21;;;;;;;4.40;4.13;;;21.60;97.30;;;;;;4943932;29;20214;-65
2023/06/07 16:44:47;;;;;;;4.23;3.97;;;21.50;97.30;;;;;;4948150;29;20349;-65
2023/06/07 16:47:12;;;;;;;8.13;5.40;;;21.50;97.30;;;;;;4941487;28;20439;-65
2023/06/07 16:49:38;;;;;;;9.43;7.60;;;21.50;97.30;;;;;;4945316;28;20187;-65